sensor_id;sensor_type;location;lat;lon;timestamp;temperature;humidity
17956;DHT22;27666;51.498;11.966;2022-08-16T00:00:21;22.00;99.90
17956;DHT22;27666;51.498;11.966;2022-08-16T00:03:09;22.00;99.90
17956;DHT22;27666;51.498;11.966;2022-08-16T00:05:58;22.00;99.90
17956;DHT22;27666;51.498;11.966;2022-08-16T00:08:45;22.00;99.90
17956;DHT22;27666;51.498;11.966;2022-08-16T00:11:32;22.10;99.90
17956;DHT22;27666;51.498;11.966;2022-08-16T00:14:21;22.10;99.90
17956;DHT22;27666;51.498;11.966;2022-08-16T00:17:13;22.20;99.90
17956;DHT22;27666;51.498;11.966;2022-08-16T00:20:04;22.20;99.90
17956;DHT22;27666;51.498;11.966;2022-08-16T00:22:57;22.20;99.90
17956;DHT22;27666;51.498;11.966;2022-08-16T00:25:45;22.30;99.90
17956;DHT22;27666;51.498;11.966;2022-08-16T00:28:52;22.30;99.90
17956;DHT22;27666;51.498;11.966;2022-08-16T00:31:39;22.20;99.90
17956;DHT22;27666;51.498;11.966;2022-08-16T00:34:45;22.20;99.90
17956;DHT22;27666;51.498;11.966;2022-08-16T00:37:38;22.20;99.90
17956;DHT22;27666;51.498;11.966;2022-08-16T00:40:46;22.10;99.90
17956;DHT22;27666;51.498;11.966;2022-08-16T00:43:38;22.00;99.90
17956;DHT22;27666;51.498;11.966;2022-08-16T00:46:30;22.00;99.90
17956;DHT22;27666;51.498;11.966;2022-08-16T00:49:20;21.90;99.90
17956;DHT22;27666;51.498;11.966;2022-08-16T00:52:09;22.00;99.90
17956;DHT22;27666;51.498;11.966;2022-08-16T00:55:15;21.90;99.90
17956;DHT22;27666;51.498;11.966;2022-08-16T00:58:05;21.90;99.90
17956;DHT22;27666;51.498;11.966;2022-08-16T01:01:00;21.80;99.90
17956;DHT22;27666;51.498;11.966;2022-08-16T01:03:49;22.00;99.90
17956;DHT22;27666;51.498;11.966;2022-08-16T01:06:36;21.90;99.90
17956;DHT22;27666;51.498;11.966;2022-08-16T01:09:43;21.90;99.90
17956;DHT22;27666;51.498;11.966;2022-08-16T01:12:34;22.00;99.90
17956;DHT22;27666;51.498;11.966;2022-08-16T01:15:24;21.90;99.90
17956;DHT22;27666;51.498;11.966;2022-08-16T01:18:16;22.00;99.90
17956;DHT22;27666;51.498;11.966;2022-08-16T01:21:34;21.90;99.90
17956;DHT22;27666;51.498;11.966;2022-08-16T01:24:29;21.90;99.90
17956;DHT22;27666;51.498;11.966;2022-08-16T01:27:41;21.90;99.90
17956;DHT22;27666;51.498;11.966;2022-08-16T01:30:31;21.80;99.90
17956;DHT22;27666;51.498;11.966;2022-08-16T01:33:21;21.70;99.90
17956;DHT22;27666;51.498;11.966;2022-08-16T01:36:08;21.70;99.90
17956;DHT22;27666;51.498;11.966;2022-08-16T01:38:57;21.60;99.90
17956;DHT22;27666;51.498;11.966;2022-08-16T01:41:45;21.60;99.90
17956;DHT22;27666;51.498;11.966;2022-08-16T01:44:33;21.60;99.90
17956;DHT22;27666;51.498;11.966;2022-08-16T01:47:22;21.50;99.90
17956;DHT22;27666;51.498;11.966;2022-08-16T01:50:09;21.50;99.90
17956;DHT22;27666;51.498;11.966;2022-08-16T01:53:15;21.50;99.90
17956;DHT22;27666;51.498;11.966;2022-08-16T01:56:04;21.40;99.90
17956;DHT22;27666;51.498;11.966;2022-08-16T01:58:55;21.40;99.90
17956;DHT22;27666;51.498;11.966;2022-08-16T02:01:42;21.30;99.90
17956;DHT22;27666;51.498;11.966;2022-08-16T02:04:37;21.40;99.90
17956;DHT22;27666;51.498;11.966;2022-08-16T02:07:38;21.40;99.90
17956;DHT22;27666;51.498;11.966;2022-08-16T02:10:28;21.30;99.90
17956;DHT22;27666;51.498;11.966;2022-08-16T02:13:18;21.30;99.90
17956;DHT22;27666;51.498;11.966;2022-08-16T02:16:13;21.40;99.90
17956;DHT22;27666;51.498;11.966;2022-08-16T02:19:03;21.30;99.90
17956;DHT22;27666;51.498;11.966;2022-08-16T02:22:01;21.30;99.90
17956;DHT22;27666;51.498;11.966;2022-08-16T02:25:12;21.30;99.90
17956;DHT22;27666;51.498;11.966;2022-08-16T02:28:00;21.20;99.90
17956;DHT22;27666;51.498;11.966;2022-08-16T02:30:47;21.20;99.90
17956;DHT22;27666;51.498;11.966;2022-08-16T02:33:38;21.10;99.90
17956;DHT22;27666;51.498;11.966;2022-08-16T02:36:28;21.10;99.90
17956;DHT22;27666;51.498;11.966;2022-08-16T02:39:32;21.10;99.90
17956;DHT22;27666;51.498;11.966;2022-08-16T02:42:21;21.20;99.90
17956;DHT22;27666;51.498;11.966;2022-08-16T02:45:08;21.10;99.90
17956;DHT22;27666;51.498;11.966;2022-08-16T02:47:56;21.10;99.90
17956;DHT22;27666;51.498;11.966;2022-08-16T02:51:06;21.00;99.90
17956;DHT22;27666;51.498;11.966;2022-08-16T02:53:56;21.00;99.90
17956;DHT22;27666;51.498;11.966;2022-08-16T02:56:42;20.90;99.90
17956;DHT22;27666;51.498;11.966;2022-08-16T02:59:32;20.90;99.90
17956;DHT22;27666;51.498;11.966;2022-08-16T03:02:25;20.90;99.90
17956;DHT22;27666;51.498;11.966;2022-08-16T03:05:16;20.80;99.90
17956;DHT22;27666;51.498;11.966;2022-08-16T03:08:05;20.80;99.90
17956;DHT22;27666;51.498;11.966;2022-08-16T03:11:13;20.70;99.90
17956;DHT22;27666;51.498;11.966;2022-08-16T03:14:06;20.80;99.90
17956;DHT22;27666;51.498;11.966;2022-08-16T03:16:53;20.70;99.90
17956;DHT22;27666;51.498;11.966;2022-08-16T03:19:45;20.70;99.90
17956;DHT22;27666;51.498;11.966;2022-08-16T03:22:46;20.60;99.90
17956;DHT22;27666;51.498;11.966;2022-08-16T03:25:35;20.70;99.90
17956;DHT22;27666;51.498;11.966;2022-08-16T03:28:29;20.60;99.90
17956;DHT22;27666;51.498;11.966;2022-08-16T03:31:16;20.70;99.90
17956;DHT22;27666;51.498;11.966;2022-08-16T03:34:03;20.70;99.90
17956;DHT22;27666;51.498;11.966;2022-08-16T03:36:50;20.70;99.90
17956;DHT22;27666;51.498;11.966;2022-08-16T03:39:37;20.60;99.90
17956;DHT22;27666;51.498;11.966;2022-08-16T03:42:29;20.60;99.90
17956;DHT22;27666;51.498;11.966;2022-08-16T03:45:16;20.70;99.90
17956;DHT22;27666;51.498;11.966;2022-08-16T03:48:07;20.70;99.90
17956;DHT22;27666;51.498;11.966;2022-08-16T03:53:49;20.60;99.90
17956;DHT22;27666;51.498;11.966;2022-08-16T03:56:45;20.60;99.90
17956;DHT22;27666;51.498;11.966;2022-08-16T03:59:43;20.60;99.90
17956;DHT22;27666;51.498;11.966;2022-08-16T04:02:30;20.50;99.90
17956;DHT22;27666;51.498;11.966;2022-08-16T04:05:17;20.50;99.90
17956;DHT22;27666;51.498;11.966;2022-08-16T04:08:06;20.50;99.90
17956;DHT22;27666;51.498;11.966;2022-08-16T04:11:07;20.40;99.90
17956;DHT22;27666;51.498;11.966;2022-08-16T04:13:53;20.50;99.90
17956;DHT22;27666;51.498;11.966;2022-08-16T04:17:03;20.60;99.90
17956;DHT22;27666;51.498;11.966;2022-08-16T04:19:50;20.60;99.90
17956;DHT22;27666;51.498;11.966;2022-08-16T04:22:42;20.60;99.90
17956;DHT22;27666;51.498;11.966;2022-08-16T04:25:33;20.60;99.90
17956;DHT22;27666;51.498;11.966;2022-08-16T04:28:20;20.70;99.90
17956;DHT22;27666;51.498;11.966;2022-08-16T04:31:26;20.70;99.90
17956;DHT22;27666;51.498;11.966;2022-08-16T04:34:16;20.80;99.90
17956;DHT22;27666;51.498;11.966;2022-08-16T04:37:09;20.70;99.90
17956;DHT22;27666;51.498;11.966;2022-08-16T04:39:55;20.80;99.90
17956;DHT22;27666;51.498;11.966;2022-08-16T04:42:42;20.90;99.90
17956;DHT22;27666;51.498;11.966;2022-08-16T04:45:30;21.00;99.90
17956;DHT22;27666;51.498;11.966;2022-08-16T04:48:21;21.10;99.90
17956;DHT22;27666;51.498;11.966;2022-08-16T04:51:19;21.30;99.90
17956;DHT22;27666;51.498;11.966;2022-08-16T04:54:07;21.40;99.90
17956;DHT22;27666;51.498;11.966;2022-08-16T04:56:54;21.60;99.90
17956;DHT22;27666;51.498;11.966;2022-08-16T04:59:43;21.80;99.90
17956;DHT22;27666;51.498;11.966;2022-08-16T05:02:30;22.00;99.90
17956;DHT22;27666;51.498;11.966;2022-08-16T05:05:27;22.20;99.90
17956;DHT22;27666;51.498;11.966;2022-08-16T05:08:18;22.40;99.90
17956;DHT22;27666;51.498;11.966;2022-08-16T05:11:15;22.50;99.90
17956;DHT22;27666;51.498;11.966;2022-08-16T05:14:02;22.60;99.90
17956;DHT22;27666;51.498;11.966;2022-08-16T05:16:51;22.70;99.90
17956;DHT22;27666;51.498;11.966;2022-08-16T05:22:31;23.10;99.90
17956;DHT22;27666;51.498;11.966;2022-08-16T05:25:22;23.30;99.90
17956;DHT22;27666;51.498;11.966;2022-08-16T05:28:25;23.60;99.90
17956;DHT22;27666;51.498;11.966;2022-08-16T05:31:22;23.90;99.90
17956;DHT22;27666;51.498;11.966;2022-08-16T05:34:14;24.10;99.90
17956;DHT22;27666;51.498;11.966;2022-08-16T05:37:04;24.50;99.90
17956;DHT22;27666;51.498;11.966;2022-08-16T05:39:51;24.60;99.90
17956;DHT22;27666;51.498;11.966;2022-08-16T05:42:41;24.70;99.90
17956;DHT22;27666;51.498;11.966;2022-08-16T05:45:33;25.00;99.90
17956;DHT22;27666;51.498;11.966;2022-08-16T05:51:11;25.50;99.90
17956;DHT22;27666;51.498;11.966;2022-08-16T08:37:30;34.10;92.50
17956;DHT22;27666;51.498;11.966;2022-08-16T08:40:37;34.30;92.00
17956;DHT22;27666;51.498;11.966;2022-08-16T08:43:26;34.10;91.60
17956;DHT22;27666;51.498;11.966;2022-08-16T08:46:25;34.20;91.70
17956;DHT22;27666;51.498;11.966;2022-08-16T08:49:19;34.20;91.40
17956;DHT22;27666;51.498;11.966;2022-08-16T08:52:28;34.30;91.20
17956;DHT22;27666;51.498;11.966;2022-08-16T08:55:22;34.30;91.10
17956;DHT22;27666;51.498;11.966;2022-08-16T08:58:13;34.10;90.80
17956;DHT22;27666;51.498;11.966;2022-08-16T09:01:03;34.10;90.60
17956;DHT22;27666;51.498;11.966;2022-08-16T09:03:53;34.20;90.60
17956;DHT22;27666;51.498;11.966;2022-08-16T09:06:41;34.30;90.30
17956;DHT22;27666;51.498;11.966;2022-08-16T09:09:30;34.30;90.00
17956;DHT22;27666;51.498;11.966;2022-08-16T09:12:18;34.40;89.00
17956;DHT22;27666;51.498;11.966;2022-08-16T09:15:20;34.40;88.90
17956;DHT22;27666;51.498;11.966;2022-08-16T09:18:08;34.40;88.60
17956;DHT22;27666;51.498;11.966;2022-08-16T09:21:12;34.40;87.70
17956;DHT22;27666;51.498;11.966;2022-08-16T09:24:01;34.50;87.70
17956;DHT22;27666;51.498;11.966;2022-08-16T09:26:55;34.40;87.50
17956;DHT22;27666;51.498;11.966;2022-08-16T09:29:42;34.50;87.30
17956;DHT22;27666;51.498;11.966;2022-08-16T09:32:30;34.40;86.90
17956;DHT22;27666;51.498;11.966;2022-08-16T09:35:17;34.30;86.30
17956;DHT22;27666;51.498;11.966;2022-08-16T09:58:00;34.40;80.80
17956;DHT22;27666;51.498;11.966;2022-08-16T10:00:51;34.20;74.90
17956;DHT22;27666;51.498;11.966;2022-08-16T10:03:41;34.20;74.50
17956;DHT22;27666;51.498;11.966;2022-08-16T10:06:47;34.20;73.70
17956;DHT22;27666;51.498;11.966;2022-08-16T10:09:34;34.00;96.90
17956;DHT22;27666;51.498;11.966;2022-08-16T10:12:40;33.80;96.10
17956;DHT22;27666;51.498;11.966;2022-08-16T10:15:46;34.10;96.20
17956;DHT22;27666;51.498;11.966;2022-08-16T10:18:41;34.10;97.30
17956;DHT22;27666;51.498;11.966;2022-08-16T10:46:35;33.50;99.90
17956;DHT22;27666;51.498;11.966;2022-08-16T10:49:36;33.20;72.50
17956;DHT22;27666;51.498;11.966;2022-08-16T10:52:57;33.20;73.10
17956;DHT22;27666;51.498;11.966;2022-08-16T11:00:06;33.00;73.20
17956;DHT22;27666;51.498;11.966;2022-08-16T11:32:52;29.40;72.60
17956;DHT22;27666;51.498;11.966;2022-08-16T11:35:50;31.20;75.40
17956;DHT22;27666;51.498;11.966;2022-08-16T12:58:56;30.40;75.30
17956;DHT22;27666;51.498;11.966;2022-08-16T13:01:43;30.30;75.00
17956;DHT22;27666;51.498;11.966;2022-08-16T13:04:34;30.30;75.80
17956;DHT22;27666;51.498;11.966;2022-08-16T13:07:22;30.30;75.70
17956;DHT22;27666;51.498;11.966;2022-08-16T13:10:12;30.40;75.60
17956;DHT22;27666;51.498;11.966;2022-08-16T13:13:23;30.50;74.00
17956;DHT22;27666;51.498;11.966;2022-08-16T13:16:10;30.60;74.70
17956;DHT22;27666;51.498;11.966;2022-08-16T13:19:04;30.80;73.50
17956;DHT22;27666;51.498;11.966;2022-08-16T13:21:51;30.90;74.40
17956;DHT22;27666;51.498;11.966;2022-08-16T13:24:38;30.80;74.40
17956;DHT22;27666;51.498;11.966;2022-08-16T13:27:25;30.70;73.80
17956;DHT22;27666;51.498;11.966;2022-08-16T13:30:36;30.60;74.60
17956;DHT22;27666;51.498;11.966;2022-08-16T13:33:28;30.50;74.20
17956;DHT22;27666;51.498;11.966;2022-08-16T13:36:15;30.30;74.40
17956;DHT22;27666;51.498;11.966;2022-08-16T13:39:21;30.20;74.70
17956;DHT22;27666;51.498;11.966;2022-08-16T13:42:09;30.10;74.80
17956;DHT22;27666;51.498;11.966;2022-08-16T13:44:56;29.90;74.90
17956;DHT22;27666;51.498;11.966;2022-08-16T13:47:44;29.80;74.90
17956;DHT22;27666;51.498;11.966;2022-08-16T13:50:37;29.60;75.20
17956;DHT22;27666;51.498;11.966;2022-08-16T13:53:36;29.50;75.80
17956;DHT22;27666;51.498;11.966;2022-08-16T13:56:25;29.50;76.30
17956;DHT22;27666;51.498;11.966;2022-08-16T13:59:22;29.60;76.60
17956;DHT22;27666;51.498;11.966;2022-08-16T14:02:13;29.40;76.90
17956;DHT22;27666;51.498;11.966;2022-08-16T14:05:02;29.40;77.30
17956;DHT22;27666;51.498;11.966;2022-08-16T14:07:50;29.40;75.60
17956;DHT22;27666;51.498;11.966;2022-08-16T14:10:37;29.30;75.80
17956;DHT22;27666;51.498;11.966;2022-08-16T14:13:24;29.10;76.50
17956;DHT22;27666;51.498;11.966;2022-08-16T14:16:10;29.10;77.30
17956;DHT22;27666;51.498;11.966;2022-08-16T14:19:14;29.20;77.90
17956;DHT22;27666;51.498;11.966;2022-08-16T14:22:08;29.20;78.00
17956;DHT22;27666;51.498;11.966;2022-08-16T14:25:00;29.30;78.00
17956;DHT22;27666;51.498;11.966;2022-08-16T14:27:51;29.40;77.40
17956;DHT22;27666;51.498;11.966;2022-08-16T14:30:39;29.50;76.80
17956;DHT22;27666;51.498;11.966;2022-08-16T14:33:25;29.50;77.30
17956;DHT22;27666;51.498;11.966;2022-08-16T14:36:17;29.40;77.20
17956;DHT22;27666;51.498;11.966;2022-08-16T14:39:15;29.40;77.90
17956;DHT22;27666;51.498;11.966;2022-08-16T14:42:06;29.40;78.00
17956;DHT22;27666;51.498;11.966;2022-08-16T14:44:57;29.40;78.40
17956;DHT22;27666;51.498;11.966;2022-08-16T14:47:45;29.40;78.50
17956;DHT22;27666;51.498;11.966;2022-08-16T14:50:35;29.40;77.40
17956;DHT22;27666;51.498;11.966;2022-08-16T14:53:22;29.30;77.20
17956;DHT22;27666;51.498;11.966;2022-08-16T14:56:11;29.30;77.40
17956;DHT22;27666;51.498;11.966;2022-08-16T14:59:18;29.30;78.20
17956;DHT22;27666;51.498;11.966;2022-08-16T15:02:10;29.30;78.20
17956;DHT22;27666;51.498;11.966;2022-08-16T15:05:18;29.30;77.40
17956;DHT22;27666;51.498;11.966;2022-08-16T15:08:07;29.30;76.60
17956;DHT22;27666;51.498;11.966;2022-08-16T15:10:54;29.30;77.00
17956;DHT22;27666;51.498;11.966;2022-08-16T15:13:42;29.30;78.00
17956;DHT22;27666;51.498;11.966;2022-08-16T15:16:30;29.20;76.70
17956;DHT22;27666;51.498;11.966;2022-08-16T15:19:18;29.10;78.60
17956;DHT22;27666;51.498;11.966;2022-08-16T15:22:09;29.10;79.10
17956;DHT22;27666;51.498;11.966;2022-08-16T15:25:00;29.00;79.20
17956;DHT22;27666;51.498;11.966;2022-08-16T15:27:48;29.10;79.30
17956;DHT22;27666;51.498;11.966;2022-08-16T15:30:41;29.10;78.80
17956;DHT22;27666;51.498;11.966;2022-08-16T15:33:46;29.10;78.90
17956;DHT22;27666;51.498;11.966;2022-08-16T15:36:42;29.20;78.40
17956;DHT22;27666;51.498;11.966;2022-08-16T15:39:29;29.20;78.00
17956;DHT22;27666;51.498;11.966;2022-08-16T15:42:24;29.10;78.10
17956;DHT22;27666;51.498;11.966;2022-08-16T15:45:13;29.10;78.50
17956;DHT22;27666;51.498;11.966;2022-08-16T15:48:21;29.00;79.20
17956;DHT22;27666;51.498;11.966;2022-08-16T15:51:13;29.00;79.00
17956;DHT22;27666;51.498;11.966;2022-08-16T15:54:00;28.90;78.50
17956;DHT22;27666;51.498;11.966;2022-08-16T15:57:07;28.90;76.70
17956;DHT22;27666;51.498;11.966;2022-08-16T15:59:56;28.80;78.50
17956;DHT22;27666;51.498;11.966;2022-08-16T16:03:02;28.80;77.30
17956;DHT22;27666;51.498;11.966;2022-08-16T16:05:56;28.80;79.00
17956;DHT22;27666;51.498;11.966;2022-08-16T16:08:45;28.70;79.10
17956;DHT22;27666;51.498;11.966;2022-08-16T16:11:34;28.80;77.90
17956;DHT22;27666;51.498;11.966;2022-08-16T16:14:22;28.80;78.00
17956;DHT22;27666;51.498;11.966;2022-08-16T16:17:12;28.80;77.90
17956;DHT22;27666;51.498;11.966;2022-08-16T16:20:02;28.80;78.80
17956;DHT22;27666;51.498;11.966;2022-08-16T16:22:50;28.70;78.30
17956;DHT22;27666;51.498;11.966;2022-08-16T16:25:38;28.70;77.80
17956;DHT22;27666;51.498;11.966;2022-08-16T16:28:30;28.60;76.70
17956;DHT22;27666;51.498;11.966;2022-08-16T16:31:38;28.60;77.30
17956;DHT22;27666;51.498;11.966;2022-08-16T16:34:28;28.60;77.60
17956;DHT22;27666;51.498;11.966;2022-08-16T16:37:20;28.60;79.00
17956;DHT22;27666;51.498;11.966;2022-08-16T16:40:09;28.60;78.80
17956;DHT22;27666;51.498;11.966;2022-08-16T16:43:01;28.60;78.90
17956;DHT22;27666;51.498;11.966;2022-08-16T16:45:48;28.40;79.00
17956;DHT22;27666;51.498;11.966;2022-08-16T16:48:34;28.50;78.90
17956;DHT22;27666;51.498;11.966;2022-08-16T16:51:21;28.50;78.60
17956;DHT22;27666;51.498;11.966;2022-08-16T16:54:12;28.50;78.90
17956;DHT22;27666;51.498;11.966;2022-08-16T16:57:13;28.50;78.90
17956;DHT22;27666;51.498;11.966;2022-08-16T17:00:20;28.40;78.90
17956;DHT22;27666;51.498;11.966;2022-08-16T17:03:14;28.30;78.90
17956;DHT22;27666;51.498;11.966;2022-08-16T17:06:02;28.20;79.30
17956;DHT22;27666;51.498;11.966;2022-08-16T17:08:54;28.20;79.50
17956;DHT22;27666;51.498;11.966;2022-08-16T17:11:43;28.10;79.60
17956;DHT22;27666;51.498;11.966;2022-08-16T17:14:41;28.10;79.60
17956;DHT22;27666;51.498;11.966;2022-08-16T17:17:27;28.10;80.00
17956;DHT22;27666;51.498;11.966;2022-08-16T17:20:21;28.10;79.70
17956;DHT22;27666;51.498;11.966;2022-08-16T17:23:09;28.10;80.30
17956;DHT22;27666;51.498;11.966;2022-08-16T17:25:56;28.00;79.50
17956;DHT22;27666;51.498;11.966;2022-08-16T17:28:43;28.00;79.90
17956;DHT22;27666;51.498;11.966;2022-08-16T17:31:47;27.90;80.30
17956;DHT22;27666;51.498;11.966;2022-08-16T17:34:34;27.90;81.20
17956;DHT22;27666;51.498;11.966;2022-08-16T17:40:39;27.80;80.90
17956;DHT22;27666;51.498;11.966;2022-08-16T17:43:43;27.70;81.10
17956;DHT22;27666;51.498;11.966;2022-08-16T17:46:30;27.70;82.00
17956;DHT22;27666;51.498;11.966;2022-08-16T17:49:38;27.60;81.40
17956;DHT22;27666;51.498;11.966;2022-08-16T17:52:24;27.60;81.60
17956;DHT22;27666;51.498;11.966;2022-08-16T17:55:20;27.60;83.10
17956;DHT22;27666;51.498;11.966;2022-08-16T17:58:07;27.50;83.00
17956;DHT22;27666;51.498;11.966;2022-08-16T18:01:09;27.40;83.60
17956;DHT22;27666;51.498;11.966;2022-08-16T18:03:56;27.40;83.40
17956;DHT22;27666;51.498;11.966;2022-08-16T18:06:55;27.40;85.10
17956;DHT22;27666;51.498;11.966;2022-08-16T18:09:41;27.30;84.30
17956;DHT22;27666;51.498;11.966;2022-08-16T18:12:28;27.30;84.70
17956;DHT22;27666;51.498;11.966;2022-08-16T18:15:36;27.20;84.30
17956;DHT22;27666;51.498;11.966;2022-08-16T18:18:23;27.10;84.00
17956;DHT22;27666;51.498;11.966;2022-08-16T18:21:13;27.10;85.00
17956;DHT22;27666;51.498;11.966;2022-08-16T18:24:18;27.00;85.20
17956;DHT22;27666;51.498;11.966;2022-08-16T18:27:05;27.00;84.30
17956;DHT22;27666;51.498;11.966;2022-08-16T18:30:12;26.90;85.40
17956;DHT22;27666;51.498;11.966;2022-08-16T18:33:01;26.90;84.30
17956;DHT22;27666;51.498;11.966;2022-08-16T18:35:47;26.90;85.10
17956;DHT22;27666;51.498;11.966;2022-08-16T18:38:41;26.80;85.80
17956;DHT22;27666;51.498;11.966;2022-08-16T18:41:28;26.70;86.10
17956;DHT22;27666;51.498;11.966;2022-08-16T18:44:17;26.60;86.90
17956;DHT22;27666;51.498;11.966;2022-08-16T18:47:12;26.50;86.50
17956;DHT22;27666;51.498;11.966;2022-08-16T18:49:58;26.40;87.30
17956;DHT22;27666;51.498;11.966;2022-08-16T18:52:50;26.40;87.30
17956;DHT22;27666;51.498;11.966;2022-08-16T18:55:36;26.30;87.50
17956;DHT22;27666;51.498;11.966;2022-08-16T18:58:31;26.20;87.60
17956;DHT22;27666;51.498;11.966;2022-08-16T19:01:18;26.20;88.30
17956;DHT22;27666;51.498;11.966;2022-08-16T19:04:05;26.20;88.40
17956;DHT22;27666;51.498;11.966;2022-08-16T19:07:12;26.10;89.00
17956;DHT22;27666;51.498;11.966;2022-08-16T19:09:59;26.10;89.50
17956;DHT22;27666;51.498;11.966;2022-08-16T19:12:47;26.10;89.60
17956;DHT22;27666;51.498;11.966;2022-08-16T19:15:36;25.90;89.20
17956;DHT22;27666;51.498;11.966;2022-08-16T19:18:24;25.90;90.00
17956;DHT22;27666;51.498;11.966;2022-08-16T19:21:11;25.80;90.40
17956;DHT22;27666;51.498;11.966;2022-08-16T19:23:59;25.80;90.40
17956;DHT22;27666;51.498;11.966;2022-08-16T19:26:48;25.80;90.20
17956;DHT22;27666;51.498;11.966;2022-08-16T19:29:35;25.90;90.20
17956;DHT22;27666;51.498;11.966;2022-08-16T19:32:25;25.80;90.00
17956;DHT22;27666;51.498;11.966;2022-08-16T19:35:13;25.80;90.30
17956;DHT22;27666;51.498;11.966;2022-08-16T19:37:59;25.70;90.00
17956;DHT22;27666;51.498;11.966;2022-08-16T19:40:46;25.70;90.40
17956;DHT22;27666;51.498;11.966;2022-08-16T19:43:33;25.80;90.30
17956;DHT22;27666;51.498;11.966;2022-08-16T19:46:19;25.80;90.60
17956;DHT22;27666;51.498;11.966;2022-08-16T19:49:07;25.80;90.60
17956;DHT22;27666;51.498;11.966;2022-08-16T19:52:08;25.70;90.50
17956;DHT22;27666;51.498;11.966;2022-08-16T19:54:59;25.70;90.60
17956;DHT22;27666;51.498;11.966;2022-08-16T19:57:47;25.70;90.80
17956;DHT22;27666;51.498;11.966;2022-08-16T20:00:35;25.70;90.80
17956;DHT22;27666;51.498;11.966;2022-08-16T20:03:22;25.60;91.00
17956;DHT22;27666;51.498;11.966;2022-08-16T20:06:11;25.60;91.00
17956;DHT22;27666;51.498;11.966;2022-08-16T20:09:18;25.60;90.80
17956;DHT22;27666;51.498;11.966;2022-08-16T20:12:05;25.50;90.90
17956;DHT22;27666;51.498;11.966;2022-08-16T20:14:54;25.50;91.20
17956;DHT22;27666;51.498;11.966;2022-08-16T20:17:42;25.60;91.20
17956;DHT22;27666;51.498;11.966;2022-08-16T20:20:28;25.50;91.40
17956;DHT22;27666;51.498;11.966;2022-08-16T20:23:17;25.50;91.50
17956;DHT22;27666;51.498;11.966;2022-08-16T20:26:09;25.50;91.50
17956;DHT22;27666;51.498;11.966;2022-08-16T20:28:55;25.40;91.30
17956;DHT22;27666;51.498;11.966;2022-08-16T20:31:42;25.50;91.70
17956;DHT22;27666;51.498;11.966;2022-08-16T20:34:28;25.40;91.40
17956;DHT22;27666;51.498;11.966;2022-08-16T20:37:15;25.40;91.70
17956;DHT22;27666;51.498;11.966;2022-08-16T20:40:05;25.40;91.90
17956;DHT22;27666;51.498;11.966;2022-08-16T20:43:14;25.40;92.00
17956;DHT22;27666;51.498;11.966;2022-08-16T20:46:01;25.40;92.20
17956;DHT22;27666;51.498;11.966;2022-08-16T20:48:48;25.30;92.30
17956;DHT22;27666;51.498;11.966;2022-08-16T20:51:35;25.30;92.30
17956;DHT22;27666;51.498;11.966;2022-08-16T20:54:33;25.20;92.30
17956;DHT22;27666;51.498;11.966;2022-08-16T20:57:21;25.30;92.50
17956;DHT22;27666;51.498;11.966;2022-08-16T21:00:09;25.30;92.70
17956;DHT22;27666;51.498;11.966;2022-08-16T21:02:58;25.30;92.70
17956;DHT22;27666;51.498;11.966;2022-08-16T21:05:44;25.30;93.00
17956;DHT22;27666;51.498;11.966;2022-08-16T21:08:32;25.30;92.90
17956;DHT22;27666;51.498;11.966;2022-08-16T21:11:37;25.20;92.90
17956;DHT22;27666;51.498;11.966;2022-08-16T21:14:26;25.20;93.00
17956;DHT22;27666;51.498;11.966;2022-08-16T21:17:14;25.20;93.30
17956;DHT22;27666;51.498;11.966;2022-08-16T21:20:02;25.30;93.40
17956;DHT22;27666;51.498;11.966;2022-08-16T21:22:54;25.20;93.80
17956;DHT22;27666;51.498;11.966;2022-08-16T21:25:41;25.20;94.70
17956;DHT22;27666;51.498;11.966;2022-08-16T21:28:43;25.10;95.20
17956;DHT22;27666;51.498;11.966;2022-08-16T21:31:31;25.10;95.80
17956;DHT22;27666;51.498;11.966;2022-08-16T21:34:18;25.00;96.20
17956;DHT22;27666;51.498;11.966;2022-08-16T21:37:04;24.90;96.50
17956;DHT22;27666;51.498;11.966;2022-08-16T21:39:51;24.90;96.80
17956;DHT22;27666;51.498;11.966;2022-08-16T21:42:39;24.90;97.10
17956;DHT22;27666;51.498;11.966;2022-08-16T21:45:26;24.90;97.40
17956;DHT22;27666;51.498;11.966;2022-08-16T21:48:14;24.80;97.70
17956;DHT22;27666;51.498;11.966;2022-08-16T21:51:01;24.70;97.80
17956;DHT22;27666;51.498;11.966;2022-08-16T21:53:47;24.60;97.50
17956;DHT22;27666;51.498;11.966;2022-08-16T21:56:34;24.60;97.70
17956;DHT22;27666;51.498;11.966;2022-08-16T21:59:20;24.60;98.00
17956;DHT22;27666;51.498;11.966;2022-08-16T22:02:07;24.50;98.00
17956;DHT22;27666;51.498;11.966;2022-08-16T22:04:55;24.40;98.30
17956;DHT22;27666;51.498;11.966;2022-08-16T22:07:42;24.20;99.10
17956;DHT22;27666;51.498;11.966;2022-08-16T22:10:29;24.10;99.60
17956;DHT22;27666;51.498;11.966;2022-08-16T22:13:36;24.10;99.90
17956;DHT22;27666;51.498;11.966;2022-08-16T22:16:28;24.10;99.90
17956;DHT22;27666;51.498;11.966;2022-08-16T22:19:15;23.90;99.90
17956;DHT22;27666;51.498;11.966;2022-08-16T22:22:03;23.80;99.90
17956;DHT22;27666;51.498;11.966;2022-08-16T22:24:50;23.60;99.90
17956;DHT22;27666;51.498;11.966;2022-08-16T22:27:37;23.50;99.90
17956;DHT22;27666;51.498;11.966;2022-08-16T22:30:23;23.50;99.90
17956;DHT22;27666;51.498;11.966;2022-08-16T22:33:15;23.50;99.90
17956;DHT22;27666;51.498;11.966;2022-08-16T22:36:02;23.50;99.90
17956;DHT22;27666;51.498;11.966;2022-08-16T22:38:50;23.40;99.90
17956;DHT22;27666;51.498;11.966;2022-08-16T22:41:42;23.30;99.90
17956;DHT22;27666;51.498;11.966;2022-08-16T22:44:30;23.10;99.90
17956;DHT22;27666;51.498;11.966;2022-08-16T22:47:16;23.00;99.90
17956;DHT22;27666;51.498;11.966;2022-08-16T22:50:06;22.90;99.90
17956;DHT22;27666;51.498;11.966;2022-08-16T22:52:54;22.80;99.90
17956;DHT22;27666;51.498;11.966;2022-08-16T22:55:43;22.80;99.90
17956;DHT22;27666;51.498;11.966;2022-08-16T22:58:29;22.70;99.90
17956;DHT22;27666;51.498;11.966;2022-08-16T23:01:22;22.70;99.90
17956;DHT22;27666;51.498;11.966;2022-08-16T23:04:09;22.70;99.90
17956;DHT22;27666;51.498;11.966;2022-08-16T23:06:56;22.90;99.90
17956;DHT22;27666;51.498;11.966;2022-08-16T23:09:43;22.80;99.90
17956;DHT22;27666;51.498;11.966;2022-08-16T23:12:30;22.60;99.90
17956;DHT22;27666;51.498;11.966;2022-08-16T23:15:18;22.60;99.90
17956;DHT22;27666;51.498;11.966;2022-08-16T23:18:08;22.60;99.90
17956;DHT22;27666;51.498;11.966;2022-08-16T23:20:57;22.80;99.90